createdAt,value
2017-09-26T00:01:31.338Z,14.03
2017-09-26T00:03:58.810Z,17.80
2017-09-26T00:06:26.239Z,19.73
2017-09-26T00:08:54.161Z,13.40
2017-09-26T00:11:21.579Z,11.53
2017-09-26T00:13:49.263Z,12.17
2017-09-26T00:16:16.727Z,14.67
2017-09-26T00:18:44.188Z,17.57
2017-09-26T00:21:11.636Z,13.13
2017-09-26T00:23:39.872Z,14.33
2017-09-26T00:26:07.290Z,12.97
2017-09-26T00:28:34.768Z,12.23
2017-09-26T00:31:02.202Z,13.87
2017-09-26T00:33:29.632Z,15.00
2017-09-26T00:35:59.676Z,15.50
2017-09-26T00:38:27.114Z,16.57
2017-09-26T00:40:54.566Z,17.37
2017-09-26T00:43:22.012Z,15.67
2017-09-26T00:45:49.443Z,15.63
2017-09-26T00:48:16.862Z,13.83
2017-09-26T00:50:44.991Z,14.53
2017-09-26T00:53:12.413Z,16.93
2017-09-26T00:55:40.237Z,13.93
2017-09-26T00:58:07.667Z,13.37
2017-09-26T01:00:36.685Z,12.53
2017-09-26T01:03:04.127Z,15.90
2017-09-26T01:05:33.315Z,13.60
2017-09-26T01:08:00.922Z,12.87
2017-09-26T01:10:28.355Z,13.80
2017-09-26T01:12:55.786Z,16.20
2017-09-26T01:15:23.283Z,19.43
2017-09-26T01:17:50.720Z,16.00
2017-09-26T01:20:18.546Z,13.43
2017-09-26T01:22:45.982Z,13.77
2017-09-26T01:25:14.102Z,14.90
2017-09-26T01:27:41.619Z,14.87
2017-09-26T01:30:09.292Z,14.57
2017-09-26T01:32:36.746Z,14.93
2017-09-26T01:35:04.217Z,15.33
2017-09-26T01:37:31.682Z,14.03
2017-09-26T01:39:59.158Z,12.90
2017-09-26T01:42:26.598Z,13.77
2017-09-26T01:44:54.023Z,13.37
2017-09-26T01:47:21.850Z,14.93
2017-09-26T01:49:49.309Z,17.67
2017-09-26T01:52:16.731Z,15.40
2017-09-26T01:54:44.160Z,16.17
2017-09-26T01:57:14.843Z,15.80
2017-09-26T01:59:42.946Z,15.53
2017-09-26T02:02:10.377Z,13.00
2017-09-26T02:04:38.114Z,14.13
2017-09-26T02:07:06.029Z,18.13
2017-09-26T02:09:33.494Z,15.40
2017-09-26T02:12:00.939Z,17.63
2017-09-26T02:14:28.389Z,13.83
2017-09-26T02:16:55.820Z,14.40
2017-09-26T02:19:23.261Z,16.27
2017-09-26T02:21:50.704Z,18.53
2017-09-26T02:24:18.128Z,17.33
2017-09-26T02:26:45.581Z,14.83
2017-09-26T02:29:13.497Z,18.43
2017-09-26T02:31:40.954Z,13.27
2017-09-26T02:34:09.211Z,17.00
2017-09-26T02:36:36.635Z,15.90
2017-09-26T02:39:04.159Z,13.00
2017-09-26T02:41:31.619Z,13.33
2017-09-26T02:43:59.042Z,13.57
2017-09-26T02:46:26.962Z,13.53
2017-09-26T02:48:54.460Z,13.80
2017-09-26T02:51:21.976Z,16.87
2017-09-26T02:53:49.421Z,13.77
2017-09-26T02:56:17.017Z,14.10
2017-09-26T02:58:44.456Z,15.57
2017-09-26T03:01:11.905Z,16.00
2017-09-26T03:03:39.418Z,14.27
2017-09-26T03:06:06.880Z,17.50
2017-09-26T03:08:34.322Z,16.33
2017-09-26T03:11:01.920Z,18.50
2017-09-26T03:13:30.081Z,15.37
2017-09-26T03:15:57.657Z,15.13
2017-09-26T03:18:25.326Z,16.20
2017-09-26T03:20:52.819Z,16.20
2017-09-26T03:23:20.741Z,17.40
2017-09-26T03:25:48.319Z,15.87
2017-09-26T03:28:15.774Z,14.27
2017-09-26T03:30:43.227Z,15.00
2017-09-26T03:33:10.702Z,13.17
2017-09-26T03:35:38.167Z,17.23
2017-09-26T03:38:05.607Z,18.90
2017-09-26T03:40:33.304Z,17.17
2017-09-26T03:43:00.973Z,16.83
2017-09-26T03:45:28.414Z,17.33
2017-09-26T03:47:56.039Z,16.90
2017-09-26T03:50:23.515Z,17.47
2017-09-26T03:52:50.964Z,15.40
2017-09-26T03:55:18.588Z,14.80
2017-09-26T03:57:46.059Z,15.37
2017-09-26T04:00:13.510Z,16.07
2017-09-26T04:02:40.993Z,16.00
2017-09-26T04:05:08.423Z,16.50
2017-09-26T04:07:35.925Z,14.87
2017-09-26T04:10:03.768Z,16.77
2017-09-26T04:12:31.203Z,14.70
2017-09-26T04:14:58.783Z,18.30
2017-09-26T04:17:26.265Z,18.30
2017-09-26T04:19:55.286Z,14.57
2017-09-26T04:22:22.734Z,17.10
2017-09-26T04:24:50.864Z,17.43
2017-09-26T04:27:18.349Z,16.43
2017-09-26T04:29:45.806Z,20.00
2017-09-26T04:32:13.392Z,15.80
2017-09-26T04:34:41.334Z,14.17
2017-09-26T04:37:08.794Z,14.23
2017-09-26T04:39:36.276Z,14.30
2017-09-26T04:42:03.717Z,17.97
2017-09-26T04:44:31.176Z,13.93
2017-09-26T04:46:58.661Z,13.07
2017-09-26T04:49:26.129Z,12.47
2017-09-26T04:51:53.622Z,17.33
2017-09-26T04:54:21.351Z,14.47
2017-09-26T04:56:48.807Z,13.77
2017-09-26T04:59:16.363Z,16.63
2017-09-26T05:01:43.968Z,13.47
2017-09-26T05:04:11.821Z,15.50
2017-09-26T05:06:39.377Z,14.53
2017-09-26T05:09:06.940Z,14.70
2017-09-26T05:11:34.409Z,16.07
2017-09-26T05:14:01.906Z,14.77
2017-09-26T05:16:29.749Z,19.50
2017-09-26T05:18:57.210Z,19.67
2017-09-26T05:21:24.682Z,16.33
2017-09-26T05:23:52.630Z,17.27
2017-09-26T05:26:20.358Z,16.50
2017-09-26T05:28:47.829Z,17.50
2017-09-26T05:31:15.330Z,23.80
2017-09-26T05:33:42.812Z,21.80
2017-09-26T05:36:10.651Z,18.57
2017-09-26T05:38:38.142Z,18.43
2017-09-26T05:41:05.588Z,17.53
2017-09-26T05:43:33.544Z,17.43
2017-09-26T05:46:01.105Z,19.60
2017-09-26T05:48:28.581Z,18.60
2017-09-26T05:50:56.066Z,19.33
2017-09-26T05:53:23.959Z,15.90
2017-09-26T05:55:51.413Z,18.67
2017-09-26T05:58:18.879Z,16.53
2017-09-26T06:00:46.988Z,15.17
2017-09-26T06:03:14.424Z,15.27
2017-09-26T06:05:41.873Z,17.90
2017-09-26T06:08:09.373Z,21.30
2017-09-26T06:10:36.869Z,19.20
2017-09-26T06:13:04.318Z,16.37
2017-09-26T06:15:31.813Z,18.30
2017-09-26T06:17:59.263Z,25.73
2017-09-26T06:20:26.803Z,17.13
2017-09-26T06:22:54.367Z,17.23
2017-09-26T06:25:21.811Z,19.40
2017-09-26T06:27:49.775Z,18.70
2017-09-26T06:30:18.077Z,19.03
2017-09-26T06:32:45.527Z,17.70
2017-09-26T06:35:12.983Z,16.03
2017-09-26T06:37:40.457Z,22.40
2017-09-26T06:40:07.931Z,16.67
2017-09-26T06:42:35.428Z,17.93
2017-09-26T06:45:02.901Z,22.03
2017-09-26T06:47:30.758Z,21.40
2017-09-26T06:49:58.621Z,20.10
2017-09-26T06:52:26.098Z,23.60
2017-09-26T06:54:53.946Z,19.53
2017-09-26T06:57:21.503Z,17.60
2017-09-26T06:59:50.186Z,16.67
2017-09-26T07:02:17.668Z,19.87
2017-09-26T07:04:45.159Z,18.47
2017-09-26T07:07:13.685Z,24.80
2017-09-26T07:09:41.150Z,19.33
2017-09-26T07:12:09.415Z,18.43
2017-09-26T07:14:37.000Z,24.63
2017-09-26T07:17:04.432Z,17.07
2017-09-26T07:19:31.894Z,20.87
2017-09-26T07:22:00.108Z,20.80
2017-09-26T07:24:27.581Z,17.70
2017-09-26T07:26:55.125Z,22.90
2017-09-26T07:29:22.931Z,19.20
2017-09-26T07:31:50.641Z,23.20
2017-09-26T07:34:18.158Z,22.80
2017-09-26T07:36:45.725Z,23.20
2017-09-26T07:39:14.379Z,21.93
2017-09-26T07:41:41.984Z,22.80
2017-09-26T07:44:09.739Z,18.37
2017-09-26T07:46:37.219Z,21.80
2017-09-26T07:49:05.084Z,21.30
2017-09-26T07:51:33.013Z,21.53
2017-09-26T07:54:00.459Z,21.60
2017-09-26T07:56:27.920Z,19.57
2017-09-26T07:58:55.409Z,19.47
2017-09-26T08:01:22.860Z,19.73
2017-09-26T08:03:51.017Z,20.20
2017-09-26T08:06:19.284Z,21.50
2017-09-26T08:08:47.345Z,23.53
2017-09-26T08:11:15.218Z,28.00
2017-09-26T08:13:43.352Z,25.37
2017-09-26T08:16:10.829Z,22.63
2017-09-26T08:18:38.286Z,24.03
2017-09-26T08:21:06.041Z,24.60
2017-09-26T08:23:33.520Z,31.40
2017-09-26T08:26:01.068Z,23.70
2017-09-26T08:28:28.645Z,25.50
2017-09-26T08:30:56.097Z,25.77
2017-09-26T08:33:23.566Z,23.83
2017-09-26T08:35:51.198Z,22.37
2017-09-26T08:38:18.664Z,23.50
2017-09-26T08:40:46.120Z,29.37
2017-09-26T08:43:13.582Z,27.87
2017-09-26T08:45:41.063Z,29.00
2017-09-26T08:48:08.538Z,25.20
2017-09-26T08:50:36.199Z,29.30
2017-09-26T08:53:03.646Z,26.40
2017-09-26T08:55:31.064Z,28.00
2017-09-26T08:57:58.931Z,25.57
2017-09-26T09:00:26.827Z,25.57
2017-09-26T09:02:54.330Z,25.20
2017-09-26T09:05:22.037Z,30.13
2017-09-26T09:07:49.474Z,26.43
2017-09-26T09:10:17.033Z,29.07
2017-09-26T09:12:44.492Z,26.97
2017-09-26T09:15:11.963Z,25.60
2017-09-26T09:17:40.114Z,25.43
2017-09-26T09:20:08.992Z,25.10
2017-09-26T09:22:36.490Z,24.80
2017-09-26T09:25:03.961Z,26.23
2017-09-26T09:27:31.420Z,27.63
2017-09-26T09:29:58.986Z,23.47
2017-09-26T09:32:26.445Z,21.43
2017-09-26T09:34:53.916Z,22.03
2017-09-26T09:37:21.385Z,18.67
2017-09-26T09:39:48.937Z,20.53
2017-09-26T09:42:16.386Z,21.67
2017-09-26T09:44:44.078Z,19.50
2017-09-26T09:47:11.559Z,19.37
2017-09-26T09:49:39.827Z,21.83
2017-09-26T09:52:07.302Z,21.57
2017-09-26T09:54:34.759Z,18.70
2017-09-26T09:57:02.227Z,19.73
2017-09-26T09:59:29.717Z,19.50
2017-09-26T10:01:57.140Z,28.00
2017-09-26T10:04:24.615Z,27.60
2017-09-26T10:06:52.351Z,25.83
2017-09-26T10:09:19.923Z,21.10
2017-09-26T10:11:47.798Z,24.67
2017-09-26T10:14:15.688Z,24.73
2017-09-26T10:16:43.618Z,24.60
2017-09-26T10:19:11.136Z,22.77
2017-09-26T10:21:39.018Z,22.13
2017-09-26T10:24:06.632Z,23.10
2017-09-26T10:26:34.158Z,28.03
2017-09-26T10:29:02.031Z,23.70
2017-09-26T10:31:29.985Z,23.20
2017-09-26T10:33:57.480Z,29.60
2017-09-26T10:36:24.973Z,20.50
2017-09-26T10:38:52.461Z,23.53
2017-09-26T10:41:20.185Z,24.60
2017-09-26T10:43:47.700Z,23.80
2017-09-26T10:46:15.159Z,24.77
2017-09-26T10:48:43.072Z,23.00
2017-09-26T10:51:11.031Z,22.87
2017-09-26T10:53:38.552Z,24.10
2017-09-26T10:56:06.433Z,23.33
2017-09-26T10:58:34.370Z,21.57
2017-09-26T11:01:01.828Z,25.97
2017-09-26T11:03:29.729Z,24.63
2017-09-26T11:05:57.620Z,22.53
2017-09-26T11:08:25.087Z,21.90
2017-09-26T11:10:52.560Z,18.80
2017-09-26T11:13:20.015Z,24.20
2017-09-26T11:15:47.479Z,21.47
2017-09-26T11:18:14.956Z,22.07
2017-09-26T11:20:42.442Z,21.67
2017-09-26T11:23:10.039Z,21.87
2017-09-26T11:25:39.475Z,20.30
2017-09-26T11:28:07.159Z,20.13
2017-09-26T11:30:34.673Z,19.30
2017-09-26T11:33:02.616Z,20.37
2017-09-26T11:35:30.082Z,20.40
2017-09-26T11:37:57.563Z,20.70
2017-09-26T11:40:25.009Z,19.03
2017-09-26T11:42:52.563Z,19.30
2017-09-26T11:45:20.167Z,16.47
2017-09-26T11:47:48.048Z,20.60
2017-09-26T11:50:15.682Z,16.20
2017-09-26T11:52:43.164Z,16.80
2017-09-26T11:55:11.042Z,18.03
2017-09-26T11:57:38.951Z,15.43
2017-09-26T12:00:06.407Z,17.70
2017-09-26T12:02:33.866Z,20.40
2017-09-26T12:05:01.688Z,17.33
2017-09-26T12:07:29.645Z,17.80
2017-09-26T12:09:57.118Z,17.53
2017-09-26T12:12:24.604Z,15.43
2017-09-26T12:14:52.466Z,21.20
2017-09-26T12:17:20.351Z,20.30
2017-09-26T12:19:47.831Z,16.53
2017-09-26T12:22:15.331Z,17.17
2017-09-26T12:24:42.791Z,18.37
2017-09-26T12:27:10.264Z,19.90
2017-09-26T12:29:37.731Z,19.53
2017-09-26T12:32:05.231Z,19.10
2017-09-26T12:34:33.152Z,18.30
2017-09-26T12:37:00.629Z,19.20
2017-09-26T12:39:28.073Z,16.60
2017-09-26T12:41:55.741Z,16.60
2017-09-26T12:44:23.209Z,15.90
2017-09-26T12:46:50.678Z,18.50
2017-09-26T12:49:18.128Z,16.60
2017-09-26T12:51:45.619Z,17.20
2017-09-26T12:54:13.468Z,23.07
2017-09-26T12:56:41.979Z,18.73
2017-09-26T12:59:09.868Z,16.23
2017-09-26T13:01:37.794Z,16.50
2017-09-26T13:04:05.238Z,15.40
2017-09-26T13:06:32.831Z,17.17
2017-09-26T13:09:00.310Z,14.37
2017-09-26T13:11:27.814Z,16.53
2017-09-26T13:13:55.517Z,21.33
2017-09-26T13:16:22.964Z,16.83
2017-09-26T13:18:50.391Z,18.20
2017-09-26T13:21:17.938Z,20.67
2017-09-26T13:23:45.343Z,20.40
2017-09-26T13:26:12.767Z,19.67
2017-09-26T13:28:40.282Z,16.03
2017-09-26T13:31:07.722Z,18.27
2017-09-26T13:33:35.194Z,18.80
2017-09-26T13:36:03.279Z,22.03
2017-09-26T13:38:30.749Z,17.10
2017-09-26T13:40:58.195Z,15.40
2017-09-26T13:43:25.655Z,16.80
2017-09-26T13:45:53.123Z,17.70
2017-09-26T13:48:20.570Z,17.97
2017-09-26T13:50:48.032Z,18.30
2017-09-26T13:53:15.523Z,19.33
2017-09-26T13:55:42.955Z,19.07
2017-09-26T13:58:10.426Z,20.87
2017-09-26T14:00:37.872Z,18.37
2017-09-26T14:03:05.326Z,19.93
2017-09-26T14:05:32.801Z,19.37
2017-09-26T14:08:00.300Z,20.13
2017-09-26T14:10:27.712Z,20.03
2017-09-26T14:12:55.671Z,17.60
2017-09-26T14:15:23.515Z,20.07
2017-09-26T14:17:51.157Z,21.67
2017-09-26T14:20:18.620Z,22.10
2017-09-26T14:22:46.068Z,19.43
2017-09-26T14:25:13.726Z,20.37
2017-09-26T14:27:41.157Z,21.80
2017-09-26T14:30:08.602Z,18.43
2017-09-26T14:32:36.635Z,20.93
2017-09-26T14:35:04.082Z,20.17
2017-09-26T14:37:31.550Z,23.70
2017-09-26T14:39:59.239Z,19.33
2017-09-26T14:42:26.723Z,18.03
2017-09-26T14:44:54.168Z,18.00
2017-09-26T14:47:21.883Z,21.30
2017-09-26T14:49:49.375Z,19.53
2017-09-26T14:52:16.831Z,18.90
2017-09-26T14:54:44.307Z,21.70
2017-09-26T14:57:11.772Z,21.40
2017-09-26T14:59:39.240Z,17.40
2017-09-26T15:02:06.740Z,18.13
2017-09-26T15:04:34.197Z,21.03
2017-09-26T15:07:02.047Z,20.53
2017-09-26T15:09:29.538Z,18.27
2017-09-26T15:11:57.459Z,17.70
2017-09-26T15:14:24.926Z,17.40
2017-09-26T15:16:53.020Z,15.90
2017-09-26T15:19:20.472Z,18.07
2017-09-26T15:21:47.936Z,14.67
2017-09-26T15:24:15.431Z,15.93
2017-09-26T15:26:43.286Z,18.03
2017-09-26T15:29:10.741Z,19.57
2017-09-26T15:31:38.206Z,17.57
2017-09-26T15:34:05.724Z,18.20
2017-09-26T15:36:33.199Z,17.10
2017-09-26T15:39:00.659Z,17.60
2017-09-26T15:41:28.108Z,22.33
2017-09-26T15:43:55.565Z,17.30
2017-09-26T15:46:24.724Z,28.90
2017-09-26T15:48:52.212Z,18.50
2017-09-26T15:51:20.056Z,19.50
2017-09-26T15:53:48.632Z,16.43
2017-09-26T15:56:16.070Z,19.93
2017-09-26T15:58:43.753Z,17.77
2017-09-26T16:01:11.188Z,15.40
2017-09-26T16:03:38.621Z,17.10
2017-09-26T16:06:06.464Z,20.07
2017-09-26T16:08:33.974Z,16.33
2017-09-26T16:11:01.589Z,15.77
2017-09-26T16:13:29.078Z,16.50
2017-09-26T16:15:57.063Z,16.20
2017-09-26T16:18:24.503Z,15.43
2017-09-26T16:20:53.142Z,16.57
2017-09-26T16:23:20.992Z,15.80
2017-09-26T16:25:48.441Z,14.40
2017-09-26T16:28:15.928Z,15.70
2017-09-26T16:30:43.400Z,15.83
2017-09-26T16:33:10.905Z,17.00
2017-09-26T16:35:39.140Z,16.30
2017-09-26T16:38:06.631Z,17.33
2017-09-26T16:40:34.117Z,14.07
2017-09-26T16:43:01.999Z,14.37
2017-09-26T16:45:29.848Z,15.27
2017-09-26T16:47:57.402Z,14.50
2017-09-26T16:50:24.999Z,13.90
2017-09-26T16:52:52.899Z,13.70
2017-09-26T16:55:20.449Z,14.57
2017-09-26T16:57:48.331Z,14.97
2017-09-26T17:00:15.809Z,16.07
2017-09-26T17:02:43.434Z,13.40
2017-09-26T17:05:11.260Z,15.63
2017-09-26T17:07:38.883Z,15.77
2017-09-26T17:10:06.733Z,12.83
2017-09-26T17:12:34.913Z,17.00
2017-09-26T17:15:02.372Z,14.87
2017-09-26T17:17:29.821Z,13.50
2017-09-26T17:19:57.323Z,15.53
2017-09-26T17:22:24.787Z,15.13
2017-09-26T17:24:52.234Z,17.10
2017-09-26T17:27:20.208Z,17.73
2017-09-26T17:29:48.063Z,18.87
2017-09-26T17:32:15.483Z,17.87
2017-09-26T17:34:43.233Z,15.93
2017-09-26T17:37:10.668Z,23.20
2017-09-26T17:39:39.352Z,18.10
2017-09-26T17:42:07.452Z,16.57
2017-09-26T17:44:34.874Z,15.03
2017-09-26T17:47:02.384Z,19.53
2017-09-26T17:49:29.832Z,22.40
2017-09-26T17:51:57.249Z,16.30
2017-09-26T17:54:24.680Z,18.80
2017-09-26T17:56:52.346Z,20.13
2017-09-26T17:59:19.768Z,17.90
2017-09-26T18:01:47.598Z,23.90
2017-09-26T18:04:15.802Z,21.97
2017-09-26T18:06:43.851Z,19.17
2017-09-26T18:09:11.611Z,17.93
2017-09-26T18:11:39.268Z,19.20
2017-09-26T18:14:06.711Z,19.23
2017-09-26T18:16:34.136Z,16.37
2017-09-26T18:19:02.064Z,19.40
2017-09-26T18:21:29.508Z,19.60
2017-09-26T18:23:56.944Z,16.70
2017-09-26T18:26:26.550Z,20.27
2017-09-26T18:28:54.059Z,23.27
2017-09-26T18:31:21.506Z,19.77
2017-09-26T18:33:48.988Z,22.50
2017-09-26T18:36:16.426Z,21.40
2017-09-26T18:38:43.850Z,25.90
2017-09-26T18:41:11.872Z,20.30
2017-09-26T18:43:40.663Z,19.07
2017-09-26T18:46:08.103Z,20.13
2017-09-26T18:48:35.697Z,22.97
2017-09-26T18:51:03.131Z,22.97
2017-09-26T18:53:30.569Z,21.07
2017-09-26T18:55:57.992Z,20.57
2017-09-26T18:58:25.411Z,20.67
2017-09-26T19:00:52.902Z,18.93
2017-09-26T19:03:20.563Z,18.33
2017-09-26T19:05:47.980Z,19.80
2017-09-26T19:08:15.816Z,16.70
2017-09-26T19:10:43.263Z,16.60
2017-09-26T19:13:10.724Z,24.57
2017-09-26T19:15:38.152Z,19.97
2017-09-26T19:18:05.997Z,20.53
2017-09-26T19:20:34.332Z,19.30
2017-09-26T19:23:01.762Z,21.47
2017-09-26T19:25:29.764Z,17.93
2017-09-26T19:27:57.230Z,17.83
2017-09-26T19:30:24.669Z,15.87
2017-09-26T19:32:52.561Z,18.87
2017-09-26T19:35:19.971Z,20.00
2017-09-26T19:37:47.405Z,18.53
2017-09-26T19:40:14.857Z,19.67
2017-09-26T19:42:42.285Z,25.53
2017-09-26T19:45:09.868Z,24.00
2017-09-26T19:47:37.336Z,21.77
2017-09-26T19:50:04.764Z,23.97
2017-09-26T19:52:33.381Z,23.17
2017-09-26T19:55:00.965Z,26.57
2017-09-26T19:57:28.386Z,23.10
2017-09-26T19:59:55.823Z,17.83
2017-09-26T20:02:23.853Z,21.17
2017-09-26T20:04:51.278Z,20.67
2017-09-26T20:07:18.719Z,21.20
2017-09-26T20:09:46.334Z,18.97
2017-09-26T20:12:13.757Z,23.30
2017-09-26T20:14:41.583Z,18.90
2017-09-26T20:17:09.025Z,21.60
2017-09-26T20:19:36.457Z,19.30
2017-09-26T20:22:04.290Z,19.50
2017-09-26T20:24:31.748Z,20.43
2017-09-26T20:26:59.174Z,19.97
2017-09-26T20:29:26.617Z,21.27
2017-09-26T20:31:54.072Z,17.90
2017-09-26T20:34:21.893Z,23.03
2017-09-26T20:36:49.319Z,19.10
2017-09-26T20:39:16.991Z,22.47
2017-09-26T20:41:44.429Z,21.80
2017-09-26T20:44:12.252Z,20.87
2017-09-26T20:46:41.645Z,22.20
2017-09-26T20:49:09.092Z,21.57
2017-09-26T20:51:36.966Z,19.47
2017-09-26T20:54:04.403Z,22.50
2017-09-26T20:56:32.271Z,21.53
2017-09-26T20:58:59.675Z,19.77
2017-09-26T21:01:27.111Z,19.10
2017-09-26T21:03:54.595Z,20.10
2017-09-26T21:06:22.057Z,21.03
2017-09-26T21:08:49.509Z,21.13
2017-09-26T21:11:16.961Z,22.83
2017-09-26T21:13:44.388Z,19.63
2017-09-26T21:16:11.899Z,20.17
2017-09-26T21:18:40.691Z,20.37
2017-09-26T21:21:08.172Z,17.23
2017-09-26T21:23:35.612Z,21.00
2017-09-26T21:26:03.039Z,20.70
2017-09-26T21:28:30.945Z,21.97
2017-09-26T21:30:58.413Z,19.50
2017-09-26T21:33:25.846Z,19.00
2017-09-26T21:35:53.945Z,20.97
2017-09-26T21:38:21.373Z,20.53
2017-09-26T21:40:49.195Z,16.53
2017-09-26T21:43:16.952Z,20.93
2017-09-26T21:45:44.388Z,16.63
2017-09-26T21:48:11.826Z,17.87
2017-09-26T21:50:39.536Z,19.03
2017-09-26T21:53:06.969Z,19.00
2017-09-26T21:55:35.336Z,21.67
2017-09-26T21:58:02.766Z,19.77
2017-09-26T22:00:30.218Z,18.23
2017-09-26T22:02:57.651Z,22.00
2017-09-26T22:05:25.108Z,17.97
2017-09-26T22:07:52.540Z,19.50
2017-09-26T22:10:20.001Z,17.63
2017-09-26T22:12:47.467Z,19.27
2017-09-26T22:15:15.305Z,19.03
2017-09-26T22:17:42.812Z,20.70
2017-09-26T22:20:10.819Z,17.90
2017-09-26T22:22:38.313Z,17.40
2017-09-26T22:25:05.741Z,22.43
2017-09-26T22:27:33.194Z,21.97
2017-09-26T22:30:00.640Z,19.37
2017-09-26T22:32:28.631Z,20.13
2017-09-26T22:34:56.099Z,18.33
2017-09-26T22:37:23.522Z,20.40
2017-09-26T22:39:51.434Z,22.53
2017-09-26T22:42:19.573Z,17.10
2017-09-26T22:44:46.988Z,17.77
2017-09-26T22:47:14.567Z,18.93
2017-09-26T22:49:42.099Z,20.40
2017-09-26T22:52:09.526Z,17.50
2017-09-26T22:54:37.441Z,20.40
2017-09-26T22:57:04.904Z,20.23
2017-09-26T22:59:32.322Z,19.17
2017-09-26T23:02:00.187Z,18.67
2017-09-26T23:04:28.050Z,20.57
2017-09-26T23:06:55.532Z,20.30
2017-09-26T23:09:25.027Z,22.73
2017-09-26T23:11:52.455Z,22.37
2017-09-26T23:14:20.784Z,19.10
2017-09-26T23:16:48.820Z,18.50
2017-09-26T23:19:16.258Z,17.30
2017-09-26T23:21:43.699Z,19.07
2017-09-26T23:24:11.341Z,18.87
2017-09-26T23:26:38.998Z,18.43
2017-09-26T23:29:06.469Z,20.83
2017-09-26T23:31:34.941Z,17.70
2017-09-26T23:34:02.486Z,22.50
2017-09-26T23:36:29.945Z,20.33
2017-09-26T23:38:57.507Z,20.13
2017-09-26T23:41:24.962Z,18.40
2017-09-26T23:43:52.412Z,17.53
2017-09-26T23:46:20.663Z,17.17
2017-09-26T23:48:48.526Z,20.63
2017-09-26T23:51:16.376Z,20.70
2017-09-26T23:53:43.888Z,19.20
2017-09-26T23:56:11.989Z,22.43
2017-09-26T23:58:39.432Z,18.30
